Time;durP1;ratioP1;P1;durP2;ratioP2;P2;SDS_P1;SDS_P2;PMS_P1;PMS_P2;Temp;Humidity;BMP_temperature;BMP_pressure;BME280_temperature;BME280_humidity;BME280_pressure;Samples;Min_cycle;Max_cycle;Signal;HPM_P1;HPM_P2
2022/09/07 20:37:34;;;;;;;23.00;20.80;;;20.20;99.90;;;;;;5108320;27;20638;-74
2022/09/07 20:40:01;;;;;;;20.17;18.40;;;19.90;99.90;;;;;;5081578;28;20444;-77
2022/09/07 20:42:28;;;;;;;21.57;19.47;;;20.00;99.90;;;;;;5084749;28;20540;-72
2022/09/07 20:44:55;;;;;;;20.27;18.37;;;20.10;99.90;;;;;;5095424;28;20513;-72
2022/09/07 20:47:22;;;;;;;18.00;16.27;;;20.30;99.90;;;;;;5098003;28;20497;-72
2022/09/07 20:49:51;;;;;;;17.80;16.30;;;20.40;99.90;;;;;;5084362;28;20950;-74
2022/09/07 20:52:18;;;;;;;21.53;19.53;;;20.50;99.90;;;;;;5085994;28;20456;-71
2022/09/07 20:54:46;;;;;;;19.27;17.37;;;20.50;99.90;;;;;;5078712;28;20451;-74
2022/09/07 20:57:13;;;;;;;20.10;18.20;;;20.50;99.90;;;;;;5084961;28;20521;-70
2022/09/07 20:59:40;;;;;;;19.20;17.23;;;20.50;99.90;;;;;;5086643;28;20473;-73
2022/09/07 21:02:09;;;;;;;19.90;18.20;;;20.60;99.90;;;;;;5088702;28;20865;-73
2022/09/07 21:04:36;;;;;;;19.73;17.80;;;20.60;99.90;;;;;;5084929;28;20963;-74
2022/09/07 21:07:03;;;;;;;19.77;17.90;;;20.60;99.90;;;;;;5081613;28;20488;-74
2022/09/07 21:09:29;;;;;;;19.10;17.50;;;20.60;99.90;;;;;;5085019;28;20444;-73
2022/09/07 21:11:58;;;;;;;19.53;17.70;;;20.60;99.90;;;;;;5097157;28;20507;-72
2022/09/07 21:14:25;;;;;;;22.40;20.50;;;20.60;99.90;;;;;;5094089;28;20523;-73
2022/09/07 21:16:52;;;;;;;18.80;16.80;;;20.60;99.90;;;;;;5095785;28;20463;-73
2022/09/07 21:19:19;;;;;;;22.40;20.40;;;20.60;99.90;;;;;;5096799;28;20466;-74
2022/09/07 21:21:46;;;;;;;22.17;20.07;;;20.60;99.90;;;;;;5095553;28;20625;-73
2022/09/07 21:24:17;;;;;;;22.60;20.20;;;20.50;99.90;;;;;;5106578;28;20443;-72
2022/09/07 21:26:45;;;;;;;20.47;18.63;;;20.50;99.90;;;;;;5093490;28;20490;-73
2022/09/07 21:29:17;;;;;;;20.27;18.57;;;20.40;99.90;;;;;;5089212;28;20447;-73
2022/09/07 21:31:44;;;;;;;20.63;18.53;;;20.40;99.90;;;;;;5080968;28;20452;-73
2022/09/07 21:34:11;;;;;;;20.10;18.17;;;20.40;99.90;;;;;;5082144;28;20450;-73
2022/09/07 21:36:38;;;;;;;23.43;20.93;;;20.40;99.90;;;;;;5090988;28;20466;-73
2022/09/07 21:39:05;;;;;;;28.53;25.77;;;20.40;99.90;;;;;;5087588;28;20494;-73
2022/09/07 21:41:33;;;;;;;28.57;25.83;;;20.40;99.90;;;;;;5087892;28;20448;-73
2022/09/07 21:44:02;;;;;;;24.17;21.97;;;20.30;99.90;;;;;;5087653;28;20831;-72
2022/09/07 21:46:32;;;;;;;23.40;21.47;;;20.30;99.90;;;;;;5086376;28;20966;-72
2022/09/07 21:49:00;;;;;;;22.93;20.90;;;20.20;99.90;;;;;;5079191;28;20448;-72
2022/09/07 21:51:28;;;;;;;26.87;24.27;;;20.20;99.90;;;;;;5066994;28;20490;-72
2022/09/07 21:53:57;;;;;;;23.87;21.77;;;20.10;99.90;;;;;;5073377;28;20465;-73
2022/09/07 21:56:24;;;;;;;22.70;20.63;;;20.10;99.90;;;;;;5067100;28;20521;-72
2022/09/07 21:58:54;;;;;;;23.03;21.03;;;20.10;99.90;;;;;;5074581;28;20543;-72
2022/09/07 22:01:22;;;;;;;23.20;21.10;;;20.10;99.90;;;;;;5075590;28;20458;-72
2022/09/07 22:03:55;;;;;;;25.30;23.00;;;20.10;99.90;;;;;;5075700;28;20526;-73
2022/09/07 22:06:23;;;;;;;24.40;22.20;;;20.00;99.90;;;;;;5074285;28;20926;-72
2022/09/07 22:08:50;;;;;;;26.67;24.40;;;19.90;99.90;;;;;;5074476;28;20441;-73
2022/09/07 22:11:20;;;;;;;27.20;24.80;;;19.80;99.90;;;;;;5076084;28;20532;-72
2022/09/07 22:13:47;;;;;;;26.20;23.80;;;19.80;99.90;;;;;;5061103;28;20517;-72
2022/09/07 22:16:15;;;;;;;24.80;22.30;;;19.80;99.90;;;;;;5069998;28;20497;-71
2022/09/07 22:18:43;;;;;;;30.47;27.50;;;19.70;99.90;;;;;;5064578;28;20469;-72
2022/09/07 22:21:13;;;;;;;29.87;26.87;;;19.60;99.90;;;;;;5073031;28;20441;-74
2022/09/07 22:23:44;;;;;;;25.70;23.00;;;19.50;99.90;;;;;;5073937;28;20473;-73
2022/09/07 22:26:12;;;;;;;26.67;23.90;;;19.50;99.90;;;;;;5076960;28;20995;-75
2022/09/07 22:28:39;;;;;;;25.23;22.73;;;19.40;99.90;;;;;;5075970;28;20511;-72
2022/09/07 22:31:11;;;;;;;26.50;23.63;;;19.40;99.90;;;;;;5075469;28;20463;-74
2022/09/07 22:33:38;;;;;;;23.43;21.33;;;19.30;99.90;;;;;;5077605;28;20857;-74
2022/09/07 22:36:15;;;;;;;24.67;22.27;;;19.30;99.90;;;;;;5073947;28;20549;-74
2022/09/07 22:38:45;;;;;;;25.70;23.30;;;19.30;99.90;;;;;;5087205;28;20428;-73
2022/09/07 22:41:14;;;;;;;28.50;25.93;;;19.30;99.90;;;;;;5075539;28;20843;-73
2022/09/07 22:43:42;;;;;;;25.83;23.47;;;19.20;99.90;;;;;;5066568;28;20521;-73
2022/09/07 22:46:10;;;;;;;26.13;23.93;;;19.20;99.90;;;;;;5070560;28;20484;-74
2022/09/07 22:48:37;;;;;;;25.40;22.83;;;19.10;99.90;;;;;;5067593;28;20433;-73
2022/09/07 22:51:05;;;;;;;26.57;24.00;;;19.10;99.90;;;;;;5077449;28;20449;-72
2022/09/07 22:53:35;;;;;;;24.47;22.27;;;19.10;99.90;;;;;;5070649;28;20481;-73
2022/09/07 22:56:06;;;;;;;27.03;24.60;;;19.10;99.90;;;;;;5062040;28;20482;-73
2022/09/07 22:58:33;;;;;;;23.67;21.63;;;19.10;99.90;;;;;;5069217;28;20505;-73
2022/09/07 23:01:00;;;;;;;25.70;23.43;;;19.10;99.90;;;;;;5068676;28;20452;-73
2022/09/07 23:03:30;;;;;;;22.43;20.13;;;19.10;99.90;;;;;;5086675;28;20513;-71
2022/09/07 23:05:56;;;;;;;25.83;23.43;;;19.10;99.90;;;;;;5081448;28;20520;-71
2022/09/07 23:08:24;;;;;;;27.00;24.47;;;19.10;99.90;;;;;;5074606;28;20511;-69
2022/09/07 23:10:52;;;;;;;25.63;23.33;;;19.00;99.90;;;;;;5076267;28;20436;-72
2022/09/07 23:13:20;;;;;;;25.27;22.90;;;19.00;99.90;;;;;;5067090;28;20482;-73
2022/09/07 23:15:47;;;;;;;26.00;23.43;;;18.90;99.90;;;;;;5066003;28;20528;-73
2022/09/07 23:18:15;;;;;;;26.50;23.90;;;18.80;99.90;;;;;;5069586;28;20579;-72
2022/09/07 23:20:42;;;;;;;25.10;22.80;;;18.80;99.90;;;;;;5065329;28;20539;-72
2022/09/07 23:23:12;;;;;;;27.83;25.17;;;18.80;99.90;;;;;;5067814;28;20559;-72
2022/09/07 23:25:40;;;;;;;26.67;24.20;;;18.70;99.90;;;;;;5067350;28;20442;-72
2022/09/07 23:28:11;;;;;;;27.10;24.60;;;18.70;99.90;;;;;;5072651;28;20484;-72
2022/09/07 23:30:39;;;;;;;25.70;23.50;;;18.70;99.90;;;;;;5083804;28;20434;-72
2022/09/07 23:33:06;;;;;;;27.47;25.07;;;18.60;99.90;;;;;;5069887;28;20455;-73
2022/09/07 23:35:33;;;;;;;24.70;22.20;;;18.60;99.90;;;;;;5072699;28;20471;-72
2022/09/07 23:38:00;;;;;;;26.23;23.73;;;18.60;99.90;;;;;;5066546;28;21013;-72
2022/09/07 23:40:29;;;;;;;26.80;24.30;;;18.50;99.90;;;;;;5071509;28;20453;-72
2022/09/07 23:42:56;;;;;;;29.20;25.93;;;18.50;99.90;;;;;;5072890;28;20540;-72
2022/09/07 23:45:24;;;;;;;25.50;23.10;;;18.50;99.90;;;;;;5070750;28;20528;-72
2022/09/07 23:47:52;;;;;;;27.23;24.73;;;18.40;99.90;;;;;;5063552;28;20910;-74
2022/09/07 23:50:19;;;;;;;28.30;25.50;;;18.40;99.90;;;;;;5068529;28;20478;-73
2022/09/07 23:52:46;;;;;;;27.67;25.07;;;18.40;99.90;;;;;;5073151;28;20532;-73
2022/09/07 23:55:14;;;;;;;24.90;22.70;;;18.50;99.90;;;;;;5072026;28;20811;-72
2022/09/07 23:57:41;;;;;;;26.50;24.13;;;18.50;99.90;;;;;;5071441;28;20536;-72
